• Join FlightAware (Why Join?)
  • Login
  • US Flag 
08:55AM EDT


 

Airport Tracker/Info


-or-


 

Live Flight TrackerFlight Track Log ✈ N960DL ✈ 12-Apr-2013 ✈ KATL - KMKE

Flight Track Log - Related Links

Times and Time Zones

All times are in EDT time to prevent confusion due to time zone crossing. See the N960DL flight status page for this flight to view local times or setup timezone preferences in your user account.

Time Position Orientation Groundspeed Altitude Reporting Facility
EDT Latitude Longitude Course Direction KTS MPH feet Rate Location/Type
03:20PM 33.6536 -84.4856 320° Northwest 436 502 2,900  Level Atlanta Center
03:21PM 33.6847 -84.5556 298° West 324 373 5,300 2,340 Climbing Atlanta Center
03:22PM 33.7408 -84.5883 334° Northwest 271 312 7,600 2,340 Climbing Atlanta Center
03:23PM 33.8222 -84.5814 North 317 365 10,000 1,800 Climbing Atlanta Center
03:24PM 33.9119 -84.5819 360° North 311 358 11,300 1,260 Climbing Atlanta Center
03:25PM 34.0806 -84.4139 320° Northwest  Level FlightAware Approximate
03:25PM 34.0247 -84.5878 358° North 342 394 12,600  Level Atlanta Center
03:26PM 34.1375 -84.5933 358° North 385 443 14,700 2,040 Climbing Atlanta Center
03:29PM 34.4983 -84.6461 353° North 427 491 20,800 1,920 Climbing Atlanta Center
03:30PM 34.6192 -84.6800 347° North 437 503 22,600 1,440 Climbing Atlanta Center
03:31PM 34.7419 -84.7136 347° North 442 509 23,700 1,380 Climbing Atlanta Center
03:32PM 34.8733 -84.7450 349° North 457 526 25,400 1,500 Climbing Atlanta Center
03:33PM 35.0025 -84.7767 349° North 470 541 26,800 1,560 Climbing Atlanta Center
03:34PM 35.1317 -84.8083 349° North 470 541 28,600 1,500 Climbing Atlanta Center
03:35PM 35.2589 -84.8400 349° North 464 534 29,900 1,200 Climbing Atlanta Center
03:36PM 35.3839 -84.8692 349° North 464 534 31,100 1,140 Climbing Atlanta Center
03:37PM 35.5086 -84.9011 348° North 464 534 32,200 900 Climbing Atlanta Center
03:38PM 35.6608 -84.9383 349° North 459 528 33,200 720 Climbing Atlanta Center
03:39PM 35.7814 -84.9731 347° North 453 521 33,800 360 Climbing Atlanta Center
03:40PM 35.9064 -85.0000 350° North 453 521 34,000  Climbing Atlanta Center
03:42PM 36.1642 -85.1194 339° North 430 495 34,000  Level Indianapolis Center
03:43PM 36.2794 -85.1681 341° North 437 503 34,000  Level Indianapolis Center
03:44PM 36.3981 -85.2181 341° North 446 513 34,000  Level Indianapolis Center
03:45PM 36.5394 -85.2750 342° North 445 512 34,000  Level Indianapolis Center
03:46PM 36.6692 -85.2964 352° North 468 539 34,000  Level Indianapolis Center
03:47PM 36.7950 -85.3175 352° North 458 527 34,000  Level Indianapolis Center
03:48PM 36.9222 -85.3392 352° North 460 529 34,000  Level Indianapolis Center
03:49PM 37.0514 -85.3600 353° North 463 533 34,000  Level Indianapolis Center
03:50PM 37.1783 -85.3889 350° North 464 534 34,000  Level Indianapolis Center
03:51PM 37.3125 -85.4536 339° North 443 510 34,000  Level Indianapolis Center
03:52PM 37.4258 -85.5078 339° North 435 501 34,000  Level Indianapolis Center
03:53PM 37.5358 -85.5617 339° North 436 502 34,000  Level Indianapolis Center
03:55PM 37.6486 -85.6139 340° North 430 495 34,000  Level Indianapolis Center
03:56PM 37.7633 -85.6697 339° North 438 504 34,000  Level Indianapolis Center
03:57PM 37.8778 -85.7250 339° North 439 505 34,000  Level Indianapolis Center
03:58PM 38.0169 -85.7914 339° North 444 511 34,000  Level Indianapolis Center
03:59PM 38.1319 -85.8456 340° North 442 509 34,000  Level Indianapolis Center
04:00PM 38.2472 -85.9017 339° North 444 511 34,000  Level Indianapolis Center
04:01PM 38.3611 -85.9567 339° North 439 505 34,000  Level Indianapolis Center
04:02PM 38.4761 -86.0119 339° North 441 507 34,000  Level Indianapolis Center
04:03PM 38.5892 -86.0672 339° North 436 502 34,000  Level Indianapolis Center
04:04PM 38.7239 -86.1333 339° North 433 498 34,000  Level Indianapolis Center
04:05PM 38.8353 -86.1883 339° North 429 494 34,000  Level Indianapolis Center
04:06PM 38.9472 -86.2450 339° North 431 496 34,000  Level Indianapolis Center
04:07PM 39.0592 -86.3017 339° North 432 497 34,000  Level Indianapolis Center
04:08PM 39.1733 -86.3581 339° North 438 504 34,000  Level Indianapolis Center
04:09PM 39.2872 -86.4153 339° North 438 504 34,000  Level Indianapolis Center
04:10PM 39.4022 -86.4719 339° North 441 507 34,000  Level Indianapolis Center
04:11PM 39.5406 -86.5406 339° North 443 510 34,000  Level Indianapolis Center
04:12PM 39.6547 -86.5992 338° Northwest 440 506 34,000  Level Indianapolis Center
04:13PM 39.7692 -86.6575 339° North 439 505 34,000  Level Indianapolis Center
04:14PM 39.8831 -86.7158 339° North 439 505 34,000  Level Indianapolis Center
04:15PM 39.9958 -86.7728 339° North 435 501 34,000  Level Indianapolis Center
04:16PM 40.1083 -86.8317 338° Northwest 435 501 34,000  Level Indianapolis Center
04:17PM 40.1956 -86.8794 337° Northwest 430 495 34,000  Level Chicago Center
04:18PM 40.3081 -86.9364 339° North 433 498 34,000  Level Chicago Center
04:19PM 40.4428 -87.0081 338° Northwest 436 502 34,000  Level Chicago Center
04:20PM 40.5556 -87.0656 339° North 438 504 34,000 -60 Level Chicago Center
04:21PM 40.6844 -87.0850 353° North 468 539 33,900 -540 Descending Chicago Center
04:22PM 40.8122 -87.0992 355° North 464 534 32,900 -720 Descending Chicago Center
04:23PM 40.9364 -87.1142 355° North 457 526 32,500 -480 Descending Chicago Center
04:24PM 41.0828 -87.1339 354° North 447 514 32,000 -300 Descending Chicago Center
04:25PM 41.2069 -87.1500 354° North 449 517 32,000 -420 Level Chicago Center
04:26PM 41.3289 -87.1669 354° North 447 514 31,200 -960 Descending Chicago Center
04:27PM 41.4508 -87.1825 355° North 446 513 30,100 -1,260 Descending Chicago Center
04:28PM 41.5708 -87.1992 354° North 442 509 28,700 -1,920 Descending Chicago Center
04:29PM 41.7181 -87.2186 354° North 446 513 26,200 -1,740 Descending Chicago Center
04:30PM 41.8431 -87.2347 355° North 452 520 25,200 -1,020 Descending Chicago Center
04:32PM 41.9622 -87.2508 354° North 439 505 24,100 -1,140 Descending Chicago Center
04:33PM 42.0778 -87.2653 355° North 421 484 22,900 -1,500 Descending Chicago Center
04:34PM 42.2131 -87.2833 354° North 410 472 21,000 -1,980 Descending Chicago Center
04:35PM 42.3236 -87.2969 355° North 403 464 18,900 -2,220 Descending Chicago Center
04:36PM 42.4300 -87.3128 354° North 389 448 16,400 -2,580 Descending Chicago Center
04:37PM 42.5394 -87.3258 355° North 371 427 13,600 -2,520 Descending Chicago Center
04:38PM 42.6367 -87.3397 354° North 354 407 11,200 -1,740 Descending Chicago Center
04:40PM 42.7833 -87.4167 339° North 256 295 8,700 -1,560 Descending KMKE
04:41PM 42.8500 -87.4500 340° North 260 299 6,900 -1,800 Descending KMKE
04:41PM 42.8497 -87.4619 268° West 260 299 6,500 -2,040 Descending Chicago Center
04:42PM 42.9244 -87.5108 334° Northwest 255 293 4,300 -1,680 Descending Chicago Center
04:43PM 42.9875 -87.5536 334° Northwest 256 295 3,100 -900 Descending Chicago Center
04:44PM 43.0086 -87.6214 293° West 213 245 2,500 -300 Descending Chicago Center
04:45PM 42.9939 -87.6925 254° West 194 223 2,500 -60 Level Chicago Center
04:46PM 42.9772 -87.7631 252° West 195 224 2,400 -420 Descending Chicago Center
04:47PM 42.9606 -87.8244 250° West 185 213 1,700 -720 Descending Chicago Center
04:50PM 42.9333 -87.8833 289° West  Level FlightAware Approximate
04:57PM 42.9469 -87.8971 289° West  Level Estimated